createdAt,value
2018-04-13T00:01:41.169Z,99777.14
2018-04-13T00:04:09.572Z,99777.11
2018-04-13T00:06:38.927Z,99781.45
2018-04-13T00:09:07.302Z,99777.00
2018-04-13T00:11:35.721Z,99776.08
2018-04-13T00:14:04.075Z,99778.20
2018-04-13T00:16:32.483Z,99774.72
2018-04-13T00:19:00.982Z,99776.30
2018-04-13T00:21:29.376Z,99767.42
2018-04-13T00:23:58.520Z,99772.22
2018-04-13T00:26:26.907Z,99770.47
2018-04-13T00:28:55.290Z,99770.42
2018-04-13T00:31:23.673Z,99772.45
2018-04-13T00:33:52.055Z,99772.27
2018-04-13T00:36:20.435Z,99776.50
2018-04-13T00:38:48.925Z,99785.45
2018-04-13T00:41:17.315Z,99783.15
2018-04-13T00:43:45.683Z,99789.97
2018-04-13T00:46:14.086Z,99792.52
2018-04-13T00:48:42.454Z,99791.61
2018-04-13T00:51:10.842Z,99794.35
2018-04-13T00:53:39.215Z,99795.69
2018-04-13T00:56:07.611Z,99798.14
2018-04-13T00:58:35.974Z,99793.28
2018-04-13T01:01:04.388Z,99793.68
2018-04-13T01:03:32.769Z,99800.56
2018-04-13T01:06:01.120Z,99804.36
2018-04-13T01:08:29.681Z,99808.66
2018-04-13T01:10:58.824Z,99813.70
2018-04-13T01:13:27.211Z,99817.91
2018-04-13T01:15:55.657Z,99814.03
2018-04-13T01:18:24.837Z,99814.84
2018-04-13T01:20:53.242Z,99818.20
2018-04-13T01:23:22.392Z,99820.77
2018-04-13T01:25:50.774Z,99822.45
2018-04-13T01:28:19.205Z,99818.56
2018-04-13T01:33:21.569Z,99814.50
2018-04-13T01:35:49.958Z,99815.69
2018-04-13T01:38:18.368Z,99808.75
2018-04-13T01:40:47.523Z,99804.92
2018-04-13T01:43:15.924Z,99808.75
2018-04-13T01:45:44.316Z,99806.21
2018-04-13T01:48:12.700Z,99806.91
2018-04-13T01:50:41.104Z,99806.42
2018-04-13T01:53:10.233Z,99813.27
2018-04-13T01:55:38.641Z,99811.21
2018-04-13T01:58:07.051Z,99819.45
2018-04-13T02:00:35.433Z,99819.02
2018-04-13T02:03:04.557Z,99813.38
2018-04-13T02:05:32.908Z,99819.72
2018-04-13T02:08:01.289Z,99819.23
2018-04-13T02:10:29.696Z,99818.05
2018-04-13T02:12:58.845Z,99820.31
2018-04-13T02:15:27.314Z,99818.47
2018-04-13T02:17:55.718Z,99822.50
2018-04-13T02:20:24.103Z,99825.17
2018-04-13T02:22:52.554Z,99825.80
2018-04-13T02:25:21.105Z,99827.13
2018-04-13T02:27:50.254Z,99827.66
2018-04-13T02:30:18.627Z,99830.96
2018-04-13T02:32:47.011Z,99829.23
2018-04-13T02:35:15.489Z,99826.06
2018-04-13T02:37:43.873Z,99830.36
2018-04-13T02:40:12.261Z,99826.55
2018-04-13T02:42:40.669Z,99826.22
2018-04-13T02:45:09.075Z,99828.01
2018-04-13T02:47:37.472Z,99826.55
2018-04-13T02:50:07.022Z,99823.91
2018-04-13T02:52:35.422Z,99826.80
2018-04-13T02:55:03.890Z,99829.62
2018-04-13T02:57:32.311Z,99832.14
2018-04-13T03:00:00.699Z,99838.97
2018-04-13T03:02:29.095Z,99837.42
2018-04-13T03:04:57.453Z,99840.48
2018-04-13T03:07:25.898Z,99839.98
2018-04-13T03:09:54.292Z,99840.75
2018-04-13T03:12:22.698Z,99834.20
2018-04-13T03:14:51.108Z,99835.14
2018-04-13T03:17:19.474Z,99837.05
2018-04-13T03:19:47.849Z,99833.37
2018-04-13T03:22:16.282Z,99831.22
2018-04-13T03:24:45.478Z,99831.98
2018-04-13T03:27:14.598Z,99840.80
2018-04-13T03:29:42.998Z,99838.59
2018-04-13T03:32:11.356Z,99837.00
2018-04-13T03:34:39.751Z,99838.84
2018-04-13T03:37:08.108Z,99843.44
2018-04-13T03:39:37.325Z,99844.67
2018-04-13T03:42:05.745Z,99839.82
2018-04-13T03:44:34.135Z,99844.69
2018-04-13T03:47:02.533Z,99842.29
2018-04-13T03:49:30.893Z,99848.05
2018-04-13T03:51:59.301Z,99844.36
2018-04-13T03:54:27.698Z,99853.27
2018-04-13T03:56:56.114Z,99856.98
2018-04-13T03:59:24.492Z,99859.38
2018-04-13T04:01:52.867Z,99861.40
2018-04-13T04:04:22.045Z,99858.81
2018-04-13T04:06:51.204Z,99867.77
2018-04-13T04:09:19.573Z,99867.77
2018-04-13T04:11:47.953Z,99868.48
2018-04-13T04:14:16.343Z,99863.70
2018-04-13T04:16:44.853Z,99868.41
2018-04-13T04:19:13.253Z,99879.48
2018-04-13T04:21:59.597Z,99877.86
2018-04-13T04:24:45.834Z,99881.15
2018-04-13T04:27:14.214Z,99887.11
2018-04-13T04:29:42.605Z,99889.77
2018-04-13T04:32:10.975Z,99885.15
2018-04-13T04:34:39.341Z,99892.36
2018-04-13T04:37:08.034Z,99890.09
2018-04-13T04:39:36.460Z,99892.10
2018-04-13T04:42:05.628Z,99901.70
2018-04-13T04:44:34.027Z,99904.91
2018-04-13T04:47:02.393Z,99911.63
2018-04-13T04:49:30.764Z,99917.73
2018-04-13T04:51:59.420Z,99923.88
2018-04-13T04:54:27.785Z,99933.54
2018-04-13T04:56:56.921Z,99939.67
2018-04-13T04:59:25.305Z,99940.05
2018-04-13T05:01:53.677Z,99941.64
2018-04-13T05:04:22.109Z,99941.26
2018-04-13T05:06:50.551Z,99936.95
2018-04-13T05:09:19.710Z,99942.98
2018-04-13T05:11:48.888Z,99945.19
2018-04-13T05:14:17.430Z,99946.93
2018-04-13T05:16:45.858Z,99952.64
2018-04-13T05:19:14.269Z,99955.78
2018-04-13T05:21:43.418Z,99960.75
2018-04-13T05:24:11.816Z,99962.18
2018-04-13T05:26:40.197Z,99967.14
2018-04-13T05:29:08.601Z,99979.06
2018-04-13T05:31:37.763Z,99977.92
2018-04-13T05:34:06.168Z,99988.80
2018-04-13T05:36:34.586Z,99990.32
2018-04-13T05:39:03.742Z,99994.78
2018-04-13T05:41:32.125Z,100003.12
2018-04-13T05:44:00.510Z,99998.52
2018-04-13T05:46:28.904Z,100002.14
2018-04-13T05:48:57.291Z,100006.07
2018-04-13T05:51:25.677Z,100012.63
2018-04-13T05:53:54.229Z,100010.13
2018-04-13T05:56:22.706Z,100014.53
2018-04-13T05:58:51.103Z,100022.94
2018-04-13T06:01:19.509Z,100024.31
2018-04-13T06:03:47.914Z,100026.98
2018-04-13T06:06:17.097Z,100025.91
2018-04-13T06:08:45.469Z,100015.55
2018-04-13T06:11:13.865Z,100018.23
2018-04-13T06:13:42.249Z,100014.38
2018-04-13T06:16:11.414Z,100010.16
2018-04-13T06:18:39.809Z,100010.63
2018-04-13T06:21:08.225Z,100002.94
2018-04-13T06:23:37.422Z,100002.52
2018-04-13T06:26:05.790Z,99996.15
2018-04-13T06:28:35.710Z,99998.87
2018-04-13T06:31:04.085Z,100003.59
2018-04-13T06:33:32.585Z,100007.18
2018-04-13T06:36:00.991Z,100010.63
2018-04-13T06:38:30.186Z,100014.14
2018-04-13T06:40:59.342Z,100026.36
2018-04-13T06:43:27.762Z,100032.13
2018-04-13T06:45:56.961Z,100038.25
2018-04-13T06:48:25.389Z,100031.80
2018-04-13T06:50:53.778Z,100033.12
2018-04-13T06:53:22.216Z,100041.37
2018-04-13T06:55:51.368Z,100048.75
2018-04-13T06:58:19.799Z,100049.18
2018-04-13T07:00:48.198Z,100046.61
2018-04-13T07:03:17.382Z,100041.39
2018-04-13T07:05:45.800Z,100047.48
2018-04-13T07:08:14.208Z,100057.41
2018-04-13T07:10:42.618Z,100057.34
2018-04-13T07:13:11.805Z,100060.73
2018-04-13T07:15:40.224Z,100054.47
2018-04-13T07:18:09.379Z,100050.42
2018-04-13T07:20:37.762Z,100049.95
2018-04-13T07:23:06.170Z,100047.05
2018-04-13T07:25:34.611Z,100049.12
2018-04-13T07:28:03.097Z,100048.72
2018-04-13T07:30:31.570Z,100043.53
2018-04-13T07:32:59.990Z,100044.03
2018-04-13T07:35:28.381Z,100043.93
2018-04-13T07:38:00.313Z,100043.01
2018-04-13T07:40:29.045Z,100046.89
2018-04-13T07:42:57.141Z,100051.65
2018-04-13T07:45:25.546Z,100039.86
2018-04-13T07:47:54.778Z,100047.22
2018-04-13T07:50:23.319Z,100056.51
2018-04-13T07:52:52.480Z,100065.11
2018-04-13T07:55:20.923Z,100061.94
2018-04-13T07:57:50.094Z,100076.16
2018-04-13T08:00:18.798Z,100080.44
2018-04-13T08:02:48.071Z,100084.41
2018-04-13T08:05:16.171Z,100090.61
2018-04-13T08:07:44.701Z,100082.97
2018-04-13T08:10:13.625Z,100086.35
2018-04-13T08:12:42.283Z,100089.47
2018-04-13T08:15:10.706Z,100087.52
2018-04-13T08:17:39.098Z,100087.84
2018-04-13T08:20:09.015Z,100080.85
2018-04-13T08:22:38.981Z,100084.97
2018-04-13T08:25:07.568Z,100073.63
2018-04-13T08:27:35.982Z,100075.79
2018-04-13T08:30:04.354Z,100076.02
2018-04-13T08:32:32.826Z,100077.55
2018-04-13T08:35:01.226Z,100076.94
2018-04-13T08:37:29.614Z,100082.88
2018-04-13T08:39:58.030Z,100083.05
2018-04-13T08:42:26.952Z,100086.54
2018-04-13T08:44:55.472Z,100080.36
2018-04-13T08:47:23.851Z,100079.93
2018-04-13T08:49:52.266Z,100092.77
2018-04-13T08:52:20.676Z,100093.94
2018-04-13T08:54:49.791Z,100100.30
2018-04-13T08:57:18.180Z,100100.64
2018-04-13T08:59:46.601Z,100098.56
2018-04-13T09:02:15.753Z,100108.47
2018-04-13T09:04:44.152Z,100105.38
2018-04-13T09:07:12.547Z,100114.14
2018-04-13T09:09:40.944Z,100114.91
2018-04-13T09:12:09.340Z,100122.41
2018-04-13T09:14:41.559Z,100117.74
2018-04-13T09:17:10.710Z,100126.36
2018-04-13T09:19:39.107Z,100135.03
2018-04-13T09:22:07.501Z,100131.20
2018-04-13T09:24:35.930Z,100135.52
2018-04-13T09:27:04.328Z,100145.25
2018-04-13T09:29:32.739Z,100140.36
2018-04-13T09:32:01.139Z,100135.77
2018-04-13T09:34:29.547Z,100139.08
2018-04-13T09:36:58.709Z,100138.33
2018-04-13T09:39:27.131Z,100142.17
2018-04-13T09:41:55.506Z,100137.70
2018-04-13T09:44:24.746Z,100134.59
2018-04-13T09:46:53.867Z,100139.16
2018-04-13T09:49:22.337Z,100139.30
2018-04-13T09:51:50.729Z,100138.03
2018-04-13T09:54:19.138Z,100140.02
2018-04-13T09:56:47.637Z,100145.02
2018-04-13T09:59:15.938Z,100146.13
2018-04-13T10:01:44.330Z,100142.77
2018-04-13T10:04:13.584Z,100147.47
2018-04-13T10:06:42.013Z,100153.70
2018-04-13T10:09:10.409Z,100156.48
2018-04-13T10:11:38.847Z,100159.31
2018-04-13T10:14:07.218Z,100158.94
2018-04-13T10:16:35.619Z,100158.14
2018-04-13T10:19:04.777Z,100168.38
2018-04-13T10:21:33.207Z,100166.20
2018-04-13T10:24:02.401Z,100172.23
2018-04-13T10:26:30.803Z,100178.30
2018-04-13T10:28:59.949Z,100181.59
2018-04-13T10:31:28.369Z,100179.44
2018-04-13T10:33:57.533Z,100183.39
2018-04-13T10:36:25.917Z,100187.36
2018-04-13T10:38:54.298Z,100195.56
2018-04-13T10:41:22.689Z,100190.63
2018-04-13T10:43:51.863Z,100195.89
2018-04-13T10:46:20.244Z,100196.25
2018-04-13T10:48:48.658Z,100202.76
2018-04-13T10:51:17.061Z,100202.60
2018-04-13T10:53:45.464Z,100205.30
2018-04-13T10:56:14.614Z,100204.58
2018-04-13T10:58:43.099Z,100203.28
2018-04-13T11:01:11.487Z,100208.10
2018-04-13T11:03:39.935Z,100200.97
2018-04-13T11:06:09.102Z,100216.61
2018-04-13T11:08:37.511Z,100213.55
2018-04-13T11:11:05.901Z,100224.97
2018-04-13T11:13:34.319Z,100225.52
2018-04-13T11:16:02.706Z,100224.78
2018-04-13T11:18:31.169Z,100232.57
2018-04-13T11:20:59.609Z,100237.70
2018-04-13T11:23:28.041Z,100244.78
2018-04-13T11:25:56.453Z,100247.67
2018-04-13T11:28:24.893Z,100252.19
2018-04-13T11:30:53.268Z,100247.80
2018-04-13T11:33:21.679Z,100244.75
2018-04-13T11:35:50.073Z,100245.28
2018-04-13T11:38:18.469Z,100243.81
2018-04-13T11:40:46.929Z,100237.55
2018-04-13T11:43:15.448Z,100239.83
2018-04-13T11:45:44.607Z,100239.23
2018-04-13T11:48:13.901Z,100231.91
2018-04-13T11:50:42.309Z,100240.49
2018-04-13T11:53:10.827Z,100236.71
2018-04-13T11:55:40.730Z,100244.94
2018-04-13T11:58:09.941Z,100249.65
2018-04-13T12:00:38.353Z,100253.42
2018-04-13T12:03:07.539Z,100258.25
2018-04-13T12:05:35.914Z,100259.88
2018-04-13T12:08:05.078Z,100265.88
2018-04-13T12:10:33.477Z,100267.76
2018-04-13T12:13:01.902Z,100281.73
2018-04-13T12:15:31.061Z,100273.14
2018-04-13T12:17:59.488Z,100281.37
2018-04-13T12:20:28.649Z,100287.30
2018-04-13T12:22:57.056Z,100291.79
2018-04-13T12:25:25.518Z,100293.20
2018-04-13T12:27:53.912Z,100296.08
2018-04-13T12:30:22.343Z,100298.16
2018-04-13T12:32:50.727Z,100295.84
2018-04-13T12:35:19.132Z,100300.38
2018-04-13T12:37:47.525Z,100301.64
2018-04-13T12:40:16.689Z,100308.02
2018-04-13T12:42:45.147Z,100304.75
2018-04-13T12:45:13.552Z,100315.33
2018-04-13T12:47:42.718Z,100308.34
2018-04-13T12:50:11.112Z,100314.55
2018-04-13T12:52:40.331Z,100314.41
2018-04-13T12:55:08.975Z,100315.80
2018-04-13T12:57:37.229Z,100316.86
2018-04-13T13:00:05.607Z,100318.52
2018-04-13T13:02:34.300Z,100322.17
2018-04-13T13:05:02.684Z,100319.86
2018-04-13T13:07:31.101Z,100315.75
2018-04-13T13:09:59.522Z,100317.08
2018-04-13T13:12:28.705Z,100323.81
2018-04-13T13:14:57.117Z,100321.08
2018-04-13T13:17:25.517Z,100326.11
2018-04-13T13:19:53.892Z,100332.23
2018-04-13T13:22:22.274Z,100329.14
2018-04-13T13:24:50.678Z,100329.98
2018-04-13T13:27:19.082Z,100330.02
2018-04-13T13:29:47.511Z,100330.47
2018-04-13T13:32:16.681Z,100331.17
2018-04-13T13:34:45.218Z,100340.47
2018-04-13T13:37:13.680Z,100336.66
2018-04-13T13:39:42.961Z,100345.63
2018-04-13T13:42:11.360Z,100349.73
2018-04-13T13:44:40.514Z,100350.34
2018-04-13T13:47:09.799Z,100350.08
2018-04-13T13:49:38.201Z,100357.94
2018-04-13T13:52:06.625Z,100360.59
2018-04-13T13:54:35.023Z,100362.91
2018-04-13T13:57:04.177Z,100368.94
2018-04-13T13:59:33.374Z,100360.25
2018-04-13T14:02:01.847Z,100360.88
2018-04-13T14:04:30.236Z,100359.46
2018-04-13T14:06:58.628Z,100364.73
2018-04-13T14:09:27.079Z,100375.28
2018-04-13T14:11:56.229Z,100378.34
2018-04-13T14:14:24.630Z,100371.14
2018-04-13T14:16:53.014Z,100378.19
2018-04-13T14:19:21.433Z,100378.34
2018-04-13T14:21:49.825Z,100381.76
2018-04-13T14:24:18.282Z,100377.89
2018-04-13T14:26:47.435Z,100379.98
2018-04-13T14:29:15.849Z,100380.29
2018-04-13T14:31:44.283Z,100382.09
2018-04-13T14:34:12.677Z,100381.59
2018-04-13T14:36:41.874Z,100382.02
2018-04-13T14:39:11.198Z,100390.63
2018-04-13T14:41:39.619Z,100391.78
2018-04-13T14:44:08.784Z,100396.77
2018-04-13T14:46:37.181Z,100405.34
2018-04-13T14:49:05.570Z,100403.20
2018-04-13T14:51:33.973Z,100409.22
2018-04-13T14:54:03.312Z,100410.37
2018-04-13T14:56:31.709Z,100414.23
2018-04-13T14:59:00.118Z,100419.75
2018-04-13T15:01:28.551Z,100425.00
2018-04-13T15:03:56.915Z,100425.80
2018-04-13T15:06:26.102Z,100429.55
2018-04-13T15:08:55.240Z,100440.06
2018-04-13T15:11:23.670Z,100445.92
2018-04-13T15:13:52.086Z,100445.34
2018-04-13T15:16:21.279Z,100448.02
2018-04-13T15:18:50.455Z,100450.05
2018-04-13T15:21:18.846Z,100449.69
2018-04-13T15:23:47.241Z,100454.44
2018-04-13T15:26:16.385Z,100456.64
2018-04-13T15:28:44.761Z,100460.85
2018-04-13T15:31:13.267Z,100465.94
2018-04-13T15:33:42.449Z,100470.62
2018-04-13T15:36:10.842Z,100477.68
2018-04-13T15:38:39.241Z,100476.44
2018-04-13T15:41:07.651Z,100485.19
2018-04-13T15:43:36.840Z,100484.34
2018-04-13T15:46:05.235Z,100483.88
2018-04-13T15:48:33.696Z,100484.80
2018-04-13T15:51:02.851Z,100487.72
2018-04-13T15:53:31.260Z,100486.39
2018-04-13T15:55:59.650Z,100488.13
2018-04-13T15:58:28.034Z,100490.77
2018-04-13T16:00:56.454Z,100486.66
2018-04-13T16:03:24.886Z,100495.73
2018-04-13T16:05:53.332Z,100497.44
2018-04-13T16:08:22.497Z,100499.06
2018-04-13T16:10:50.891Z,100502.33
2018-04-13T16:13:19.280Z,100508.34
2018-04-13T16:15:47.654Z,100502.73
2018-04-13T16:18:16.877Z,100510.28
2018-04-13T16:20:45.276Z,100512.91
2018-04-13T16:23:14.475Z,100514.28
2018-04-13T16:25:43.646Z,100522.47
2018-04-13T16:28:12.059Z,100525.52
2018-04-13T16:30:41.234Z,100526.80
2018-04-13T16:33:09.667Z,100531.23
2018-04-13T16:35:38.114Z,100532.27
2018-04-13T16:38:06.515Z,100534.03
2018-04-13T16:40:35.706Z,100527.52
2018-04-13T16:43:04.883Z,100527.84
2018-04-13T16:45:33.278Z,100530.89
2018-04-13T16:48:01.744Z,100533.73
2018-04-13T16:50:30.199Z,100532.25
2018-04-13T16:52:58.585Z,100537.59
2018-04-13T16:55:27.044Z,100536.93
2018-04-13T16:57:56.229Z,100538.09
2018-04-13T17:00:25.437Z,100533.91
2018-04-13T17:02:54.603Z,100533.06
2018-04-13T17:05:23.015Z,100529.62
2018-04-13T17:07:52.186Z,100536.58
2018-04-13T17:10:21.372Z,100543.36
2018-04-13T17:12:49.801Z,100542.55
2018-04-13T17:15:18.942Z,100546.50
2018-04-13T17:17:47.346Z,100545.71
2018-04-13T17:20:15.786Z,100554.80
2018-04-13T17:22:44.947Z,100555.73
2018-04-13T17:25:13.339Z,100552.41
2018-04-13T17:27:41.744Z,100557.37
2018-04-13T17:30:10.890Z,100560.20
2018-04-13T17:32:39.309Z,100568.44
2018-04-13T17:35:08.397Z,100569.44
2018-04-13T17:37:36.786Z,100578.59
2018-04-13T17:40:05.247Z,100580.86
2018-04-13T17:42:33.714Z,100580.42
2018-04-13T17:45:02.131Z,100581.77
2018-04-13T17:47:30.571Z,100580.83
2018-04-13T17:49:58.990Z,100593.94
2018-04-13T17:52:28.343Z,100591.34
2018-04-13T17:54:57.498Z,100596.59
2018-04-13T17:57:25.913Z,100605.80
2018-04-13T17:59:54.306Z,100610.20
2018-04-13T18:02:23.462Z,100618.01
2018-04-13T18:04:51.854Z,100620.25
2018-04-13T18:07:20.273Z,100621.13
2018-04-13T18:09:49.445Z,100624.23
2018-04-13T18:12:17.862Z,100629.42
2018-04-13T18:14:47.042Z,100630.75
2018-04-13T18:17:15.505Z,100631.61
2018-04-13T18:19:43.963Z,100639.90
2018-04-13T18:22:12.390Z,100645.14
2018-04-13T18:24:40.823Z,100647.33
2018-04-13T18:27:09.231Z,100650.35
2018-04-13T18:29:37.651Z,100654.72
2018-04-13T18:32:06.084Z,100657.77
2018-04-13T18:34:34.498Z,100660.37
2018-04-13T18:37:03.196Z,100660.37
2018-04-13T18:39:31.612Z,100662.13
2018-04-13T18:42:00.115Z,100663.87
2018-04-13T18:44:28.554Z,100669.52
2018-04-13T18:46:57.053Z,100681.70
2018-04-13T18:49:26.254Z,100682.59
2018-04-13T18:51:54.714Z,100686.93
2018-04-13T18:54:23.136Z,100687.80
2018-04-13T18:56:52.343Z,100689.98
2018-04-13T18:59:20.810Z,100692.59
2018-04-13T19:01:49.243Z,100693.89
2018-04-13T19:04:17.676Z,100695.64
2018-04-13T19:06:46.107Z,100693.47
2018-04-13T19:09:14.513Z,100698.67
2018-04-13T19:11:42.931Z,100700.88
2018-04-13T19:14:12.146Z,100702.61
2018-04-13T19:16:41.346Z,100706.95
2018-04-13T19:19:10.516Z,100712.17
2018-04-13T19:21:38.982Z,100713.48
2018-04-13T19:24:07.378Z,100712.20
2018-04-13T19:26:35.810Z,100716.53
2018-04-13T19:29:04.214Z,100713.05
2018-04-13T19:31:32.681Z,100717.44
2018-04-13T19:34:01.079Z,100722.20
2018-04-13T19:36:29.489Z,100720.91
2018-04-13T19:38:57.922Z,100722.23
2018-04-13T19:41:26.339Z,100718.72
2018-04-13T19:43:54.774Z,100716.09
2018-04-13T19:46:23.206Z,100718.72
2018-04-13T19:48:51.778Z,100725.25
2018-04-13T19:51:20.167Z,100724.80
2018-04-13T19:53:48.750Z,100723.06
2018-04-13T19:56:17.339Z,100729.16
2018-04-13T19:58:45.943Z,100731.78
2018-04-13T20:01:14.335Z,100737.43
2018-04-13T20:03:42.886Z,100737.02
2018-04-13T20:06:11.343Z,100740.48
2018-04-13T20:08:39.782Z,100740.48
2018-04-13T20:11:08.187Z,100736.58
2018-04-13T20:13:36.553Z,100740.48
2018-04-13T20:16:04.940Z,100739.61
2018-04-13T20:18:34.094Z,100742.66
2018-04-13T20:21:03.282Z,100740.91
2018-04-13T20:23:32.438Z,100748.33
2018-04-13T20:26:00.861Z,100754.00
2018-04-13T20:28:29.274Z,100754.84
2018-04-13T20:30:57.682Z,100757.44
2018-04-13T20:33:26.100Z,100752.66
2018-04-13T20:35:54.515Z,100753.09
2018-04-13T20:38:23.709Z,100757.00
2018-04-13T20:40:52.876Z,100757.42
2018-04-13T20:43:21.289Z,100755.21
2018-04-13T20:45:50.482Z,100761.73
2018-04-13T20:48:18.879Z,100765.22
2018-04-13T20:50:48.055Z,100763.06
2018-04-13T20:53:16.452Z,100765.23
2018-04-13T20:55:44.901Z,100766.09
2018-04-13T20:58:13.304Z,100763.92
2018-04-13T21:00:41.746Z,100768.70
2018-04-13T21:03:10.200Z,100771.73
2018-04-13T21:05:39.812Z,100770.86
2018-04-13T21:08:08.978Z,100776.48
2018-04-13T21:10:37.545Z,100783.42
2018-04-13T21:13:06.799Z,100781.67
2018-04-13T21:15:35.243Z,100788.18
2018-04-13T21:18:03.778Z,100785.58
2018-04-13T21:20:32.271Z,100791.23
2018-04-13T21:23:00.730Z,100795.98
2018-04-13T21:25:29.156Z,100793.36
2018-04-13T21:27:57.560Z,100797.69
2018-04-13T21:30:25.965Z,100799.41
2018-04-13T21:32:54.406Z,100801.56
2018-04-13T21:35:22.785Z,100805.45
2018-04-13T21:37:51.215Z,100801.53
2018-04-13T21:40:19.696Z,100800.20
2018-04-13T21:42:48.131Z,100796.28
2018-04-13T21:45:16.521Z,100794.95
2018-04-13T21:47:44.971Z,100799.25
2018-04-13T21:50:13.421Z,100802.28
2018-04-13T21:52:41.876Z,100807.45
2018-04-13T21:55:10.362Z,100805.25
2018-04-13T21:57:38.810Z,100807.47
2018-04-13T22:00:07.295Z,100813.99
2018-04-13T22:02:36.461Z,100814.86
2018-04-13T22:05:04.879Z,100816.16
2018-04-13T22:07:34.094Z,100814.62
2018-04-13T22:10:03.290Z,100811.96
2018-04-13T22:12:50.182Z,100817.17
2018-04-13T22:15:24.297Z,100821.02
2018-04-13T22:17:52.702Z,100818.84
2018-04-13T22:20:21.136Z,100822.31
2018-04-13T22:22:49.531Z,100823.98
2018-04-13T22:25:17.937Z,100822.22
2018-04-13T22:27:47.214Z,100826.95
2018-04-13T22:30:15.619Z,100826.05
2018-04-13T22:32:44.850Z,100828.22
2018-04-13T22:35:13.255Z,100837.88
2018-04-13T22:37:41.706Z,100843.10
2018-04-13T22:40:10.902Z,100844.91
2018-04-13T22:42:39.348Z,100850.31
2018-04-13T22:45:07.823Z,100842.51
2018-04-13T22:47:37.102Z,100845.11
2018-04-13T22:50:05.495Z,100841.67
2018-04-13T22:52:33.870Z,100841.30
2018-04-13T22:55:02.253Z,100847.00
2018-04-13T22:57:30.658Z,100853.09
2018-04-13T22:59:59.184Z,100852.59
2018-04-13T23:02:28.390Z,100852.17
2018-04-13T23:04:57.630Z,100852.48
2018-04-13T23:07:26.033Z,100853.80
2018-04-13T23:09:55.225Z,100857.23
2018-04-13T23:12:23.673Z,100849.72
2018-04-13T23:14:52.896Z,100854.15
2018-04-13T23:17:21.298Z,100851.13
2018-04-13T23:19:49.717Z,100850.69
2018-04-13T23:22:37.641Z,100853.28
2018-04-13T23:25:06.084Z,100857.59
2018-04-13T23:27:34.512Z,100863.20
2018-04-13T23:30:02.926Z,100865.75
2018-04-13T23:32:31.326Z,100878.03
2018-04-13T23:34:59.742Z,100880.12
2018-04-13T23:37:28.141Z,100883.13
2018-04-13T23:39:56.733Z,100885.34
2018-04-13T23:42:25.129Z,100885.74
2018-04-13T23:44:54.319Z,100883.95
2018-04-13T23:47:22.747Z,100886.50
2018-04-13T23:49:51.147Z,100885.31
2018-04-13T23:52:19.561Z,100886.15
2018-04-13T23:54:47.977Z,100888.15
2018-04-13T23:57:17.153Z,100897.11
2018-04-13T23:59:45.536Z,100897.91
